KTOL/TOL METAR and TAF weather

Enter ICAO airport designator
Station Type Date Time Source
KTOL METAR 2020/10/29 15:52 UTC NOAA

KTOL 291552Z 01007KT 10SM OVC085 08/04 A2976 RMK AO2 SLP081 T00830044 $


Station Type Date Time Source
KTOL Decoded METAR 2020/10/29 15:52 UTC NOAA

TOLEDO EXPRESS AIRPORT, OH, United States (KTOL) 41-35N 083-48W 210M
Oct 29, 2020 - 11:52 AM EDT / 2020.10.29 1552 UTC
Wind: from the N (010 degrees) at 8 MPH (7 KT):0
Visibility: 10 mile(s):0
Sky conditions: overcast
Temperature: 46.9 F (8.3 C)
Dew Point: 39.9 F (4.4 C)
Relative Humidity: 76%
Pressure (altimeter): 29.76 in. Hg (1007 hPa)
ob: KTOL 291552Z 01007KT 10SM OVC085 08/04 A2976 RMK AO2 SLP081 T00830044
cycle: 16

Station Type Date Time Source
KTOL TAF 2020/10/29 12:22 UTC NOAA

TAF KTOL 291120Z 2912/3012 03008KT P6SM -SHRA SCT030 OVC050
FM291900 01011KT P6SM SCT025 BKN040
FM300000 35012KT P6SM SCT005 BKN025

Example: see airport list